createdAt,value
2023-06-18T00:00:30.836Z,835.00
2023-06-18T00:01:30.913Z,829.00
2023-06-18T00:02:30.897Z,817.00
2023-06-18T00:03:30.884Z,828.00
2023-06-18T00:04:30.868Z,826.00
2023-06-18T00:05:30.849Z,826.00
2023-06-18T00:06:30.882Z,810.00
2023-06-18T00:07:30.859Z,818.00
2023-06-18T00:08:29.849Z,809.00
2023-06-18T00:09:30.851Z,831.00
2023-06-18T00:10:30.845Z,813.00
2023-06-18T00:11:30.852Z,815.00
2023-06-18T00:12:30.829Z,828.00
2023-06-18T00:13:30.844Z,810.00
2023-06-18T00:14:30.892Z,813.00
2023-06-18T00:15:30.857Z,820.00
2023-06-18T00:16:30.975Z,829.00
2023-06-18T00:17:30.918Z,820.00
2023-06-18T00:18:30.864Z,817.00
2023-06-18T00:19:30.861Z,819.00
2023-06-18T00:20:30.877Z,817.00
2023-06-18T00:21:30.889Z,807.00
2023-06-18T00:22:30.883Z,815.00
2023-06-18T00:23:30.848Z,829.00
2023-06-18T00:24:30.908Z,827.00
2023-06-18T00:25:30.911Z,809.00
2023-06-18T00:26:30.867Z,830.00
2023-06-18T00:27:30.862Z,826.00
2023-06-18T00:28:30.844Z,821.00
2023-06-18T00:29:30.885Z,811.00
2023-06-18T00:30:29.839Z,815.00
2023-06-18T00:31:30.862Z,815.00
2023-06-18T00:32:30.928Z,822.00
2023-06-18T00:33:30.872Z,816.00
2023-06-18T00:34:30.842Z,819.00
2023-06-18T00:35:30.867Z,821.00
2023-06-18T00:36:30.863Z,822.00
2023-06-18T00:37:30.840Z,819.00
2023-06-18T00:38:30.854Z,807.00
2023-06-18T00:39:29.850Z,817.00
2023-06-18T00:40:29.829Z,809.00
2023-06-18T00:41:30.847Z,811.00
2023-06-18T00:42:30.816Z,812.00
2023-06-18T00:43:30.820Z,799.00
2023-06-18T00:44:30.819Z,823.00
2023-06-18T00:45:29.815Z,807.00
2023-06-18T00:46:30.834Z,803.00
2023-06-18T00:47:30.893Z,816.00
2023-06-18T00:48:30.811Z,816.00
2023-06-18T00:49:30.791Z,807.00
2023-06-18T00:50:30.794Z,807.00
2023-06-18T00:51:30.787Z,813.00
2023-06-18T00:52:30.787Z,817.00
2023-06-18T00:53:30.783Z,808.00
2023-06-18T00:54:30.810Z,818.00
2023-06-18T00:55:30.772Z,825.00
2023-06-18T00:56:29.766Z,800.00
2023-06-18T00:57:30.779Z,807.00
2023-06-18T00:58:30.767Z,796.00
2023-06-18T00:59:30.801Z,808.00
2023-06-18T01:00:29.831Z,815.00
2023-06-18T01:01:30.795Z,809.00
2023-06-18T01:02:35.302Z,816.00
2023-06-18T01:03:30.750Z,817.00
2023-06-18T01:04:30.801Z,819.00
2023-06-18T01:05:30.748Z,822.00
2023-06-18T01:06:30.731Z,823.00
2023-06-18T01:07:33.997Z,814.00
2023-06-18T01:08:30.709Z,818.00
2023-06-18T01:09:30.697Z,819.00
2023-06-18T01:10:30.736Z,822.00
2023-06-18T01:11:30.701Z,829.00
2023-06-18T01:12:29.679Z,817.00
2023-06-18T01:13:30.666Z,810.00
2023-06-18T01:14:30.664Z,814.00
2023-06-18T01:15:30.658Z,808.00
2023-06-18T01:16:30.640Z,806.00
2023-06-18T01:17:30.780Z,800.00
2023-06-18T01:18:30.652Z,792.00
2023-06-18T01:19:30.614Z,810.00
2023-06-18T01:20:30.630Z,809.00
2023-06-18T01:21:30.596Z,795.00
2023-06-18T01:22:30.592Z,799.00
2023-06-18T01:23:30.589Z,798.00
2023-06-18T01:24:30.629Z,810.00
2023-06-18T01:25:30.576Z,801.00
2023-06-18T01:26:29.643Z,802.00
2023-06-18T01:27:30.647Z,791.00
2023-06-18T01:28:30.547Z,803.00
2023-06-18T01:29:29.555Z,802.00
2023-06-18T01:30:30.562Z,788.00
2023-06-18T01:31:29.846Z,797.00
2023-06-18T01:32:30.562Z,800.00
2023-06-18T01:33:30.530Z,801.00
2023-06-18T01:34:30.532Z,790.00
2023-06-18T01:35:30.521Z,779.00
2023-06-18T01:36:30.498Z,795.00
2023-06-18T01:37:30.494Z,783.00
2023-06-18T01:38:30.484Z,790.00
2023-06-18T01:39:30.475Z,798.00
2023-06-18T01:40:30.492Z,791.00
2023-06-18T01:41:30.456Z,785.00
2023-06-18T01:42:29.479Z,789.00
2023-06-18T01:43:30.442Z,792.00
2023-06-18T01:44:30.433Z,799.00
2023-06-18T01:45:30.409Z,793.00
2023-06-18T01:46:30.459Z,787.00
2023-06-18T01:47:30.456Z,787.00
2023-06-18T01:48:29.416Z,788.00
2023-06-18T01:49:30.412Z,789.00
2023-06-18T01:50:30.375Z,789.00
2023-06-18T01:51:30.381Z,787.00
2023-06-18T01:52:30.369Z,770.00
2023-06-18T01:53:30.351Z,778.00
2023-06-18T01:54:30.337Z,776.00
2023-06-18T01:55:30.351Z,790.00
2023-06-18T01:56:30.349Z,786.00
2023-06-18T01:57:29.333Z,791.00
2023-06-18T01:58:30.456Z,789.00
2023-06-18T01:59:30.319Z,795.00
2023-06-18T02:00:30.302Z,782.00
2023-06-18T02:01:29.308Z,783.00
2023-06-18T02:02:30.376Z,787.00
2023-06-18T02:03:30.360Z,792.00
2023-06-18T02:04:30.305Z,793.00
2023-06-18T02:05:30.260Z,791.00
2023-06-18T02:06:30.259Z,786.00
2023-06-18T02:07:30.249Z,785.00
2023-06-18T02:08:30.251Z,771.00
2023-06-18T02:09:30.232Z,796.00
2023-06-18T02:10:30.254Z,780.00
2023-06-18T02:11:30.220Z,788.00
2023-06-18T02:12:29.229Z,775.00
2023-06-18T02:13:30.201Z,776.00
2023-06-18T02:14:30.274Z,783.00
2023-06-18T02:15:29.180Z,771.00
2023-06-18T02:16:30.274Z,766.00
2023-06-18T02:17:30.227Z,776.00
2023-06-18T02:18:30.168Z,777.00
2023-06-18T02:19:30.198Z,780.00
2023-06-18T02:20:30.159Z,768.00
2023-06-18T02:21:30.150Z,769.00
2023-06-18T02:22:30.188Z,775.00
2023-06-18T02:23:30.169Z,775.00
2023-06-18T02:24:30.185Z,785.00
2023-06-18T02:25:30.251Z,764.00
2023-06-18T02:26:30.099Z,780.00
2023-06-18T02:27:30.108Z,774.00
2023-06-18T02:28:30.081Z,774.00
2023-06-18T02:29:30.089Z,776.00
2023-06-18T02:30:30.166Z,780.00
2023-06-18T02:31:30.063Z,765.00
2023-06-18T02:32:30.143Z,776.00
2023-06-18T02:33:30.047Z,781.00
2023-06-18T02:34:30.060Z,769.00
2023-06-18T02:35:30.045Z,764.00
2023-06-18T02:36:30.045Z,769.00
2023-06-18T02:37:30.016Z,768.00
2023-06-18T02:38:30.024Z,768.00
2023-06-18T02:39:30.022Z,766.00
2023-06-18T02:40:29.997Z,763.00
2023-06-18T02:41:29.981Z,773.00
2023-06-18T02:42:30.010Z,760.00
2023-06-18T02:43:29.968Z,765.00
2023-06-18T02:44:28.965Z,770.00
2023-06-18T02:45:29.969Z,773.00
2023-06-18T02:46:29.029Z,760.00
2023-06-18T02:47:29.980Z,757.00
2023-06-18T02:48:28.956Z,760.00
2023-06-18T02:49:29.103Z,762.00
2023-06-18T02:50:29.921Z,764.00
2023-06-18T02:51:29.924Z,757.00
2023-06-18T02:52:29.924Z,762.00
2023-06-18T02:53:29.920Z,743.00
2023-06-18T02:54:29.919Z,761.00
2023-06-18T02:55:29.930Z,760.00
2023-06-18T02:56:29.937Z,765.00
2023-06-18T02:57:29.974Z,761.00
2023-06-18T02:58:30.270Z,764.00
2023-06-18T02:59:29.987Z,755.00
2023-06-18T03:00:30.005Z,744.00
2023-06-18T03:01:30.131Z,749.00
2023-06-18T03:02:29.085Z,757.00
2023-06-18T03:03:30.038Z,747.00
2023-06-18T03:04:30.072Z,758.00
2023-06-18T03:05:30.137Z,756.00
2023-06-18T03:06:30.069Z,759.00
2023-06-18T03:07:29.089Z,754.00
2023-06-18T03:08:30.081Z,747.00
2023-06-18T03:09:30.095Z,749.00
2023-06-18T03:10:30.123Z,756.00
2023-06-18T03:11:30.117Z,756.00
2023-06-18T03:12:30.160Z,745.00
2023-06-18T03:13:30.158Z,760.00
2023-06-18T03:14:29.183Z,747.00
2023-06-18T03:15:30.171Z,747.00
2023-06-18T03:16:30.235Z,749.00
2023-06-18T03:17:30.256Z,740.00
2023-06-18T03:18:30.262Z,744.00
2023-06-18T03:19:30.253Z,745.00
2023-06-18T03:20:30.284Z,749.00
2023-06-18T03:21:30.291Z,742.00
2023-06-18T03:22:30.345Z,751.00
2023-06-18T03:23:29.348Z,729.00
2023-06-18T03:24:30.499Z,735.00
2023-06-18T03:25:30.373Z,738.00
2023-06-18T03:26:30.394Z,752.00
2023-06-18T03:27:30.413Z,756.00
2023-06-18T03:28:30.708Z,745.00
2023-06-18T03:29:30.447Z,734.00
2023-06-18T03:30:29.469Z,742.00
2023-06-18T03:31:30.473Z,737.00
2023-06-18T03:32:30.524Z,743.00
2023-06-18T03:33:30.535Z,743.00
2023-06-18T03:34:30.564Z,745.00
2023-06-18T03:35:30.536Z,747.00
2023-06-18T03:36:30.555Z,747.00
2023-06-18T03:37:29.587Z,748.00
2023-06-18T03:38:30.574Z,742.00
2023-06-18T03:39:29.604Z,750.00
2023-06-18T03:40:30.631Z,734.00
2023-06-18T03:41:30.636Z,743.00
2023-06-18T03:42:30.640Z,745.00
2023-06-18T03:43:30.646Z,742.00
2023-06-18T03:44:30.661Z,725.00
2023-06-18T03:45:30.685Z,735.00
2023-06-18T03:46:30.727Z,747.00
2023-06-18T03:47:30.790Z,738.00
2023-06-18T03:48:30.733Z,733.00
2023-06-18T03:49:29.743Z,743.00
2023-06-18T03:50:30.779Z,736.00
2023-06-18T03:51:29.799Z,736.00
2023-06-18T03:52:30.794Z,735.00
2023-06-18T03:53:30.827Z,736.00
2023-06-18T03:54:30.842Z,739.00
2023-06-18T03:55:29.846Z,732.00
2023-06-18T03:56:30.872Z,741.00
2023-06-18T03:57:30.923Z,749.00
2023-06-18T03:58:29.916Z,731.00
2023-06-18T03:59:29.954Z,727.00
2023-06-18T04:00:29.957Z,735.00
2023-06-18T04:01:30.025Z,716.00
2023-06-18T04:02:31.068Z,730.00
2023-06-18T04:03:30.150Z,730.00
2023-06-18T04:04:31.059Z,732.00
2023-06-18T04:05:31.069Z,735.00
2023-06-18T04:06:31.154Z,729.00
2023-06-18T04:07:30.115Z,727.00
2023-06-18T04:08:31.144Z,735.00
2023-06-18T04:09:31.179Z,724.00
2023-06-18T04:10:30.163Z,721.00
2023-06-18T04:11:31.180Z,730.00
2023-06-18T04:12:31.216Z,729.00
2023-06-18T04:13:30.249Z,717.00
2023-06-18T04:14:30.261Z,712.00
2023-06-18T04:15:31.282Z,731.00
2023-06-18T04:16:31.703Z,714.00
2023-06-18T04:17:31.365Z,737.00
2023-06-18T04:18:31.307Z,729.00
2023-06-18T04:19:31.361Z,726.00
2023-06-18T04:20:31.273Z,725.00
2023-06-18T04:21:31.274Z,721.00
2023-06-18T04:22:31.291Z,711.00
2023-06-18T04:23:31.257Z,718.00
2023-06-18T04:24:31.279Z,720.00
2023-06-18T04:25:31.268Z,718.00
2023-06-18T04:26:31.243Z,716.00
2023-06-18T04:27:31.265Z,709.00
2023-06-18T04:28:31.273Z,725.00
2023-06-18T04:29:31.198Z,707.00
2023-06-18T04:30:31.204Z,707.00
2023-06-18T04:31:31.204Z,714.00
2023-06-18T04:32:30.299Z,716.00
2023-06-18T04:33:30.171Z,714.00
2023-06-18T04:34:31.189Z,705.00
2023-06-18T04:35:31.160Z,706.00
2023-06-18T04:36:31.157Z,707.00
2023-06-18T04:37:31.163Z,703.00
2023-06-18T04:38:31.167Z,703.00
2023-06-18T04:39:31.293Z,707.00
2023-06-18T04:40:31.147Z,708.00
2023-06-18T04:41:30.155Z,697.00
2023-06-18T04:42:31.104Z,709.00
2023-06-18T04:43:31.108Z,707.00
2023-06-18T04:44:30.091Z,713.00
2023-06-18T04:45:30.096Z,715.00
2023-06-18T04:46:30.145Z,712.00
2023-06-18T04:47:31.146Z,705.00
2023-06-18T04:48:30.079Z,708.00
2023-06-18T04:49:31.059Z,706.00
2023-06-18T04:50:31.066Z,705.00
2023-06-18T04:51:31.077Z,702.00
2023-06-18T04:52:30.065Z,709.00
2023-06-18T04:53:30.038Z,702.00
2023-06-18T04:54:31.055Z,702.00
2023-06-18T04:55:31.000Z,717.00
2023-06-18T04:56:31.007Z,705.00
2023-06-18T04:57:31.002Z,719.00
2023-06-18T04:58:31.015Z,711.00
2023-06-18T04:59:31.021Z,709.00
2023-06-18T05:00:29.988Z,695.00
2023-06-18T05:01:30.974Z,702.00
2023-06-18T05:02:31.005Z,711.00
2023-06-18T05:03:31.147Z,701.00
2023-06-18T05:04:31.404Z,691.00
2023-06-18T05:05:30.934Z,698.00
2023-06-18T05:06:30.930Z,709.00
2023-06-18T05:07:30.956Z,708.00
2023-06-18T05:08:30.944Z,699.00
2023-06-18T05:09:31.038Z,704.00
2023-06-18T05:10:30.001Z,703.00
2023-06-18T05:11:30.968Z,700.00
2023-06-18T05:12:30.004Z,700.00
2023-06-18T05:13:31.003Z,688.00
2023-06-18T05:14:31.031Z,697.00
2023-06-18T05:15:31.061Z,698.00
2023-06-18T05:16:30.113Z,696.00
2023-06-18T05:17:30.106Z,700.00
2023-06-18T05:18:31.106Z,701.00
2023-06-18T05:19:31.106Z,699.00
2023-06-18T05:20:31.152Z,699.00
2023-06-18T05:21:31.118Z,697.00
2023-06-18T05:22:31.146Z,683.00
2023-06-18T05:23:30.132Z,692.00
2023-06-18T05:24:30.323Z,700.00
2023-06-18T05:25:30.213Z,698.00
2023-06-18T05:26:31.202Z,699.00
2023-06-18T05:27:31.196Z,690.00
2023-06-18T05:28:31.192Z,707.00
2023-06-18T05:29:31.199Z,693.00
2023-06-18T05:30:31.239Z,685.00
2023-06-18T05:31:31.770Z,707.00
2023-06-18T05:32:31.264Z,692.00
2023-06-18T05:33:31.227Z,687.00
2023-06-18T05:34:31.223Z,673.00
2023-06-18T05:35:31.241Z,693.00
2023-06-18T05:36:30.243Z,696.00
2023-06-18T05:37:30.255Z,692.00
2023-06-18T05:38:31.259Z,685.00
2023-06-18T05:39:31.270Z,707.00
2023-06-18T05:40:31.264Z,696.00
2023-06-18T05:41:31.275Z,696.00
2023-06-18T05:42:31.307Z,686.00
2023-06-18T05:43:30.273Z,694.00
2023-06-18T05:44:31.279Z,690.00
2023-06-18T05:45:31.291Z,696.00
2023-06-18T05:46:31.319Z,698.00
2023-06-18T05:47:31.346Z,702.00
2023-06-18T05:48:30.304Z,694.00
2023-06-18T05:49:31.310Z,709.00
2023-06-18T05:50:31.296Z,690.00
2023-06-18T05:51:31.304Z,698.00
2023-06-18T05:52:31.305Z,699.00
2023-06-18T05:53:31.289Z,697.00
2023-06-18T05:54:31.321Z,682.00
2023-06-18T05:55:31.299Z,697.00
2023-06-18T05:56:31.320Z,710.00
2023-06-18T05:57:31.363Z,697.00
2023-06-18T05:58:30.346Z,681.00
2023-06-18T05:59:31.324Z,685.00
2023-06-18T06:00:30.365Z,683.00
2023-06-18T06:01:31.371Z,678.00
2023-06-18T06:02:30.402Z,688.00
2023-06-18T06:03:31.391Z,699.00
2023-06-18T06:04:31.363Z,678.00
2023-06-18T06:05:31.346Z,691.00
2023-06-18T06:06:30.361Z,682.00
2023-06-18T06:07:31.355Z,689.00
2023-06-18T06:08:30.336Z,682.00
2023-06-18T06:09:31.357Z,683.00
2023-06-18T06:10:31.348Z,687.00
2023-06-18T06:11:31.347Z,682.00
2023-06-18T06:12:31.364Z,689.00
2023-06-18T06:13:30.350Z,689.00
2023-06-18T06:14:31.384Z,690.00
2023-06-18T06:15:31.360Z,671.00
2023-06-18T06:16:31.421Z,683.00
2023-06-18T06:17:31.452Z,690.00
2023-06-18T06:18:30.343Z,686.00
2023-06-18T06:19:31.338Z,693.00
2023-06-18T06:20:31.351Z,690.00
2023-06-18T06:21:31.348Z,686.00
2023-06-18T06:22:31.344Z,686.00
2023-06-18T06:23:31.327Z,685.00
2023-06-18T06:24:31.363Z,676.00
2023-06-18T06:25:31.348Z,684.00
2023-06-18T06:26:30.345Z,671.00
2023-06-18T06:27:31.326Z,667.00
2023-06-18T06:28:31.330Z,671.00
2023-06-18T06:29:31.323Z,677.00
2023-06-18T06:30:31.356Z,681.00
2023-06-18T06:31:30.297Z,680.00
2023-06-18T06:32:31.351Z,683.00
2023-06-18T06:33:31.290Z,687.00
2023-06-18T06:34:31.308Z,687.00
2023-06-18T06:35:31.291Z,684.00
2023-06-18T06:36:31.277Z,676.00
2023-06-18T06:37:31.282Z,666.00
2023-06-18T06:38:31.285Z,671.00
2023-06-18T06:39:31.282Z,686.00
2023-06-18T06:40:30.311Z,675.00
2023-06-18T06:41:30.310Z,677.00
2023-06-18T06:42:31.314Z,666.00
2023-06-18T06:43:30.303Z,674.00
2023-06-18T06:44:31.293Z,664.00
2023-06-18T06:45:31.327Z,673.00
2023-06-18T06:46:31.397Z,673.00
2023-06-18T06:47:31.367Z,663.00
2023-06-18T06:48:31.296Z,669.00
2023-06-18T06:49:31.307Z,664.00
2023-06-18T06:50:31.312Z,665.00
2023-06-18T06:51:31.322Z,665.00
2023-06-18T06:52:31.310Z,662.00
2023-06-18T06:53:31.304Z,662.00
2023-06-18T06:54:31.309Z,666.00
2023-06-18T06:55:31.277Z,662.00
2023-06-18T06:56:31.280Z,661.00
2023-06-18T06:57:31.302Z,663.00
2023-06-18T06:58:30.315Z,660.00
2023-06-18T06:59:30.322Z,674.00
2023-06-18T07:00:31.320Z,666.00
2023-06-18T07:01:31.498Z,671.00
2023-06-18T07:02:31.428Z,663.00
2023-06-18T07:03:31.448Z,674.00
2023-06-18T07:04:33.010Z,671.00
2023-06-18T07:05:31.408Z,672.00
2023-06-18T07:06:31.413Z,695.00
2023-06-18T07:07:30.412Z,684.00
2023-06-18T07:08:31.392Z,691.00
2023-06-18T07:09:31.414Z,696.00
2023-06-18T07:10:30.364Z,695.00
2023-06-18T07:11:31.371Z,706.00
2023-06-18T07:12:31.380Z,687.00
2023-06-18T07:13:30.361Z,691.00
2023-06-18T07:14:31.360Z,695.00
2023-06-18T07:15:30.362Z,697.00
2023-06-18T07:16:31.422Z,694.00
2023-06-18T07:17:31.389Z,693.00
2023-06-18T07:18:31.355Z,694.00
2023-06-18T07:19:30.320Z,701.00
2023-06-18T07:20:31.316Z,703.00
2023-06-18T07:21:31.361Z,700.00
2023-06-18T07:22:30.306Z,705.00
2023-06-18T07:23:30.309Z,718.00
2023-06-18T07:24:31.306Z,714.00
2023-06-18T07:25:31.279Z,714.00
2023-06-18T07:26:31.281Z,718.00
2023-06-18T07:27:31.282Z,726.00
2023-06-18T07:28:31.262Z,735.00
2023-06-18T07:29:30.244Z,730.00
2023-06-18T07:30:31.235Z,729.00
2023-06-18T07:31:30.232Z,740.00
2023-06-18T07:32:31.317Z,751.00
2023-06-18T07:33:31.354Z,742.00
2023-06-18T07:34:31.398Z,751.00
2023-06-18T07:35:30.438Z,752.00
2023-06-18T07:36:31.495Z,748.00
2023-06-18T07:37:31.568Z,749.00
2023-06-18T07:38:30.668Z,755.00
2023-06-18T07:39:31.698Z,744.00
2023-06-18T07:40:31.753Z,756.00
2023-06-18T07:41:30.809Z,750.00
2023-06-18T07:42:31.947Z,748.00
2023-06-18T07:43:31.940Z,753.00
2023-06-18T07:44:30.994Z,753.00
2023-06-18T07:45:32.057Z,757.00
2023-06-18T07:46:32.142Z,756.00
2023-06-18T07:47:32.208Z,749.00
2023-06-18T07:48:32.231Z,764.00
2023-06-18T07:49:32.274Z,759.00
2023-06-18T07:50:32.363Z,757.00
2023-06-18T07:51:32.420Z,755.00
2023-06-18T07:52:32.441Z,757.00
2023-06-18T07:53:31.516Z,759.00
2023-06-18T07:54:32.563Z,761.00
2023-06-18T07:55:31.622Z,756.00
2023-06-18T07:56:31.792Z,759.00
2023-06-18T07:57:31.758Z,759.00
2023-06-18T07:58:31.813Z,760.00
2023-06-18T07:59:32.857Z,761.00
2023-06-18T08:00:32.919Z,754.00
2023-06-18T08:01:33.001Z,750.00
2023-06-18T08:02:33.128Z,758.00
2023-06-18T08:03:33.133Z,759.00
2023-06-18T08:04:33.183Z,755.00
2023-06-18T08:05:33.190Z,753.00
2023-06-18T08:06:33.309Z,768.00
2023-06-18T08:07:33.314Z,750.00
2023-06-18T08:08:33.350Z,753.00
2023-06-18T08:09:33.419Z,753.00
2023-06-18T08:10:33.466Z,750.00
2023-06-18T08:11:33.512Z,745.00
2023-06-18T08:12:33.555Z,758.00
2023-06-18T08:13:33.636Z,741.00
2023-06-18T08:14:33.721Z,753.00
2023-06-18T08:15:33.755Z,747.00
2023-06-18T08:16:33.923Z,743.00
2023-06-18T08:17:33.897Z,740.00
2023-06-18T08:18:32.901Z,747.00
2023-06-18T08:19:33.271Z,756.00
2023-06-18T08:20:33.009Z,738.00
2023-06-18T08:21:34.062Z,749.00
2023-06-18T08:22:33.134Z,726.00
2023-06-18T08:23:34.161Z,736.00
2023-06-18T08:24:34.328Z,735.00
2023-06-18T08:25:34.261Z,736.00
2023-06-18T08:26:34.340Z,738.00
2023-06-18T08:27:33.361Z,734.00
2023-06-18T08:28:34.451Z,735.00
2023-06-18T08:29:34.472Z,731.00
2023-06-18T08:30:34.523Z,740.00
2023-06-18T08:31:33.588Z,724.00
2023-06-18T08:32:34.653Z,726.00
2023-06-18T08:33:33.696Z,731.00
2023-06-18T08:34:33.742Z,723.00
2023-06-18T08:35:34.793Z,725.00
2023-06-18T08:36:34.830Z,713.00
2023-06-18T08:37:34.917Z,715.00
2023-06-18T08:38:33.949Z,721.00
2023-06-18T08:39:35.019Z,720.00
2023-06-18T08:40:35.051Z,716.00
2023-06-18T08:41:35.108Z,727.00
2023-06-18T08:42:35.182Z,714.00
2023-06-18T08:43:35.242Z,715.00
2023-06-18T08:44:35.282Z,726.00
2023-06-18T08:45:35.363Z,714.00
2023-06-18T08:46:35.405Z,717.00
2023-06-18T08:47:35.489Z,722.00
2023-06-18T08:48:35.587Z,716.00
2023-06-18T08:49:35.565Z,723.00
2023-06-18T08:50:35.629Z,711.00
2023-06-18T08:51:34.711Z,719.00
2023-06-18T08:52:35.741Z,709.00
2023-06-18T08:53:35.862Z,720.00
2023-06-18T08:54:35.865Z,717.00
2023-06-18T08:55:35.912Z,708.00
2023-06-18T08:56:35.959Z,718.00
2023-06-18T08:57:36.045Z,723.00
2023-06-18T08:58:36.100Z,707.00
2023-06-18T08:59:35.134Z,711.00
2023-06-18T09:00:35.196Z,714.00
2023-06-18T09:01:35.255Z,709.00
2023-06-18T09:02:36.394Z,717.00
2023-06-18T09:03:36.359Z,716.00
2023-06-18T09:04:35.399Z,708.00
2023-06-18T09:05:36.475Z,727.00
2023-06-18T09:06:36.532Z,718.00
2023-06-18T09:07:36.578Z,710.00
2023-06-18T09:08:35.652Z,712.00
2023-06-18T09:09:35.717Z,707.00
2023-06-18T09:10:36.756Z,712.00
2023-06-18T09:11:37.638Z,711.00
2023-06-18T09:12:36.871Z,710.00
2023-06-18T09:13:36.940Z,702.00
2023-06-18T09:14:37.017Z,702.00
2023-06-18T09:15:36.037Z,707.00
2023-06-18T09:16:37.184Z,703.00
2023-06-18T09:17:37.189Z,716.00
2023-06-18T09:18:37.242Z,705.00
2023-06-18T09:19:37.298Z,701.00
2023-06-18T09:20:37.364Z,712.00
2023-06-18T09:21:37.399Z,710.00
2023-06-18T09:22:37.454Z,713.00
2023-06-18T09:23:36.496Z,695.00
2023-06-18T09:24:37.674Z,693.00
2023-06-18T09:25:37.665Z,706.00
2023-06-18T09:26:37.672Z,696.00
2023-06-18T09:27:37.712Z,699.00
2023-06-18T09:28:37.776Z,701.00
2023-06-18T09:29:37.835Z,704.00
2023-06-18T09:30:37.879Z,703.00
2023-06-18T09:31:36.932Z,709.00
2023-06-18T09:32:37.991Z,718.00
2023-06-18T09:33:38.050Z,710.00
2023-06-18T09:34:38.121Z,695.00
2023-06-18T09:35:37.137Z,709.00
2023-06-18T09:36:38.189Z,692.00
2023-06-18T09:37:38.245Z,691.00
2023-06-18T09:38:38.302Z,713.00
2023-06-18T09:39:38.338Z,701.00
2023-06-18T09:40:38.412Z,700.00
2023-06-18T09:41:38.456Z,695.00
2023-06-18T09:42:38.480Z,701.00
2023-06-18T09:43:38.557Z,701.00
2023-06-18T09:44:38.583Z,706.00
2023-06-18T09:45:38.640Z,707.00
2023-06-18T09:46:37.749Z,704.00
2023-06-18T09:47:38.779Z,695.00
2023-06-18T09:48:38.878Z,701.00
2023-06-18T09:49:38.874Z,692.00
2023-06-18T09:50:38.917Z,706.00
2023-06-18T09:51:38.977Z,714.00
2023-06-18T09:52:37.991Z,686.00
2023-06-18T09:53:39.061Z,714.00
2023-06-18T09:54:39.103Z,715.00
2023-06-18T09:55:39.160Z,720.00
2023-06-18T09:56:38.211Z,724.00
2023-06-18T09:57:38.266Z,711.00
2023-06-18T09:58:39.327Z,710.00
2023-06-18T09:59:39.356Z,721.00
2023-06-18T10:00:39.393Z,703.00
2023-06-18T10:01:39.515Z,712.00
2023-06-18T10:02:39.515Z,707.00
2023-06-18T10:03:39.570Z,714.00
2023-06-18T10:04:38.620Z,712.00
2023-06-18T10:05:39.627Z,709.00
2023-06-18T10:06:38.687Z,708.00
2023-06-18T10:07:39.733Z,704.00
2023-06-18T10:08:39.813Z,706.00
2023-06-18T10:09:39.834Z,717.00
2023-06-18T10:10:39.868Z,721.00
2023-06-18T10:11:39.938Z,705.00
2023-06-18T10:12:40.004Z,713.00
2023-06-18T10:13:40.030Z,715.00
2023-06-18T10:14:40.085Z,715.00
2023-06-18T10:15:40.128Z,699.00
2023-06-18T10:16:40.385Z,701.00
2023-06-18T10:17:39.282Z,704.00
2023-06-18T10:18:40.262Z,723.00
2023-06-18T10:19:40.308Z,702.00
2023-06-18T10:20:40.340Z,710.00
2023-06-18T10:21:39.398Z,702.00
2023-06-18T10:22:40.428Z,699.00
2023-06-18T10:23:39.473Z,702.00
2023-06-18T10:24:40.602Z,714.00
2023-06-18T10:25:40.534Z,706.00
2023-06-18T10:26:40.562Z,696.00
2023-06-18T10:27:40.609Z,711.00
2023-06-18T10:28:40.676Z,700.00
2023-06-18T10:29:40.670Z,701.00
2023-06-18T10:30:39.729Z,696.00
2023-06-18T10:31:40.787Z,696.00
2023-06-18T10:32:40.821Z,701.00
2023-06-18T10:33:40.841Z,696.00
2023-06-18T10:34:39.888Z,701.00
2023-06-18T10:35:40.903Z,706.00
2023-06-18T10:36:40.956Z,690.00
2023-06-18T10:37:40.978Z,697.00
2023-06-18T10:38:41.001Z,714.00
2023-06-18T10:39:41.086Z,700.00
2023-06-18T10:40:41.092Z,700.00
2023-06-18T10:41:41.113Z,704.00
2023-06-18T10:42:41.161Z,701.00
2023-06-18T10:43:40.248Z,709.00
2023-06-18T10:44:41.274Z,702.00
2023-06-18T10:45:40.283Z,696.00
2023-06-18T10:46:41.322Z,698.00
2023-06-18T10:47:41.423Z,704.00
2023-06-18T10:48:41.400Z,703.00
2023-06-18T10:49:42.511Z,723.00
2023-06-18T10:50:41.413Z,706.00
2023-06-18T10:51:41.423Z,724.00
2023-06-18T10:52:41.395Z,711.00
2023-06-18T10:53:40.421Z,713.00
2023-06-18T10:54:41.378Z,706.00
2023-06-18T10:55:40.390Z,704.00
2023-06-18T10:56:41.388Z,697.00
2023-06-18T10:57:40.374Z,697.00
2023-06-18T10:58:41.391Z,703.00
2023-06-18T10:59:41.351Z,698.00
2023-06-18T11:00:41.483Z,704.00
2023-06-18T11:01:41.355Z,703.00
2023-06-18T11:02:41.413Z,716.00
2023-06-18T11:03:41.394Z,701.00
2023-06-18T11:04:40.326Z,713.00
2023-06-18T11:05:40.313Z,712.00
2023-06-18T11:06:41.310Z,705.00
2023-06-18T11:07:41.335Z,702.00
2023-06-18T11:08:41.303Z,693.00
2023-06-18T11:09:41.293Z,699.00
2023-06-18T11:10:41.285Z,699.00
2023-06-18T11:11:41.276Z,711.00
2023-06-18T11:12:41.272Z,702.00
2023-06-18T11:13:40.294Z,702.00
2023-06-18T11:14:41.252Z,703.00
2023-06-18T11:15:41.240Z,704.00
2023-06-18T11:16:41.274Z,691.00
2023-06-18T11:17:41.252Z,704.00
2023-06-18T11:18:41.267Z,703.00
2023-06-18T11:19:41.257Z,709.00
2023-06-18T11:20:41.201Z,694.00
2023-06-18T11:21:40.210Z,697.00
2023-06-18T11:22:40.187Z,701.00
2023-06-18T11:23:41.179Z,701.00
2023-06-18T11:24:41.285Z,715.00
2023-06-18T11:25:41.244Z,706.00
2023-06-18T11:26:41.252Z,704.00
2023-06-18T11:27:41.279Z,703.00
2023-06-18T11:28:41.312Z,683.00
2023-06-18T11:29:41.341Z,700.00
2023-06-18T11:30:41.444Z,704.00
2023-06-18T11:31:40.410Z,704.00
2023-06-18T11:32:40.550Z,702.00
2023-06-18T11:33:41.444Z,703.00
2023-06-18T11:34:41.484Z,716.00
2023-06-18T11:35:41.511Z,705.00
2023-06-18T11:36:41.548Z,694.00
2023-06-18T11:37:41.583Z,707.00
2023-06-18T11:38:41.592Z,708.00
2023-06-18T11:39:41.626Z,707.00
2023-06-18T11:40:40.665Z,716.00
2023-06-18T11:41:41.702Z,716.00
2023-06-18T11:42:41.706Z,722.00
2023-06-18T11:43:41.749Z,709.00
2023-06-18T11:44:41.781Z,713.00
2023-06-18T11:45:40.824Z,708.00
2023-06-18T11:46:41.891Z,692.00
2023-06-18T11:47:41.970Z,730.00
2023-06-18T11:48:41.970Z,718.00
2023-06-18T11:49:41.933Z,701.00
2023-06-18T11:50:41.974Z,699.00
2023-06-18T11:51:42.007Z,718.00
2023-06-18T11:52:41.037Z,710.00
2023-06-18T11:53:42.082Z,717.00
2023-06-18T11:54:41.131Z,714.00
2023-06-18T11:55:41.129Z,723.00
2023-06-18T11:56:42.165Z,711.00
2023-06-18T11:57:42.198Z,712.00
2023-06-18T11:58:41.222Z,709.00
2023-06-18T11:59:41.259Z,723.00
2023-06-18T12:00:42.303Z,704.00
2023-06-18T12:01:42.352Z,715.00
2023-06-18T12:02:42.528Z,717.00
2023-06-18T12:03:42.517Z,716.00
2023-06-18T12:04:42.414Z,729.00
2023-06-18T12:05:41.435Z,717.00
2023-06-18T12:06:42.505Z,731.00
2023-06-18T12:07:42.491Z,716.00
2023-06-18T12:08:41.529Z,722.00
2023-06-18T12:09:41.569Z,724.00
2023-06-18T12:10:42.588Z,713.00
2023-06-18T12:11:42.617Z,715.00
2023-06-18T12:12:42.684Z,726.00
2023-06-18T12:13:41.705Z,740.00
2023-06-18T12:14:42.762Z,713.00
2023-06-18T12:15:42.727Z,723.00
2023-06-18T12:16:42.791Z,719.00
2023-06-18T12:17:41.831Z,726.00
2023-06-18T12:18:42.856Z,718.00
2023-06-18T12:19:41.844Z,732.00
2023-06-18T12:20:42.904Z,732.00
2023-06-18T12:21:42.876Z,733.00
2023-06-18T12:22:41.916Z,715.00
2023-06-18T12:23:41.932Z,738.00
2023-06-18T12:24:43.004Z,730.00
2023-06-18T12:25:41.976Z,732.00
2023-06-18T12:26:43.022Z,733.00
2023-06-18T12:27:43.031Z,733.00
2023-06-18T12:28:43.060Z,737.00